首页
METAR-TAF:

METAR-TAF

机场 :

阿姆斯特丹史基浦機場

阿姆斯特丹, 荷兰

纬度: 52-18N, 经度: 004-46E, 海拔: -4米

当前天气观测

该预报发布于25分钟前的01:55 UTC
风速2节,风向西转西南
温度 6°C
湿度 100%
气压 1028 hPa
能見度: 7000
碎片雾

METAR: EHAM 070155Z 24002KT 7000 R18C/P2000N R27/P2000N R18R/0450N R06/P2000N BCFG NSC 06/06 Q1028 BECMG 4000 BR

时间: 04:20 (02:20 UTC)

预报

该预报发布于3小时和22分钟前的22:58 UTC
预报有效从07日的 00点(UTC)到 08日的 06点(UTC)
风速4节,风向西
能见度10公里或以上
1500米以下无云,无积雨云
成为
从 07日的 00点(UTC)到 07日的 03点(UTC)
风速3节,风向多变
能見度: 4000
浅雾, 轻雾
几率 30%
从 07日的 03点(UTC)到 07日的 07点(UTC)
能見度: 1400
碎片雾
成为
从 07日的 06点(UTC)到 07日的 09点(UTC)
风速7节,风向
能见度10公里或以上
1500米以下无云,无积雨云

TAF: EHAM 062258Z 0700/0806 26004KT CAVOK BECMG 0700/0703 VRB03KT 4000 MIFG BR NSC PROB30 0703/0707 1400 BCFG BECMG 0706/0709 10007KT CAVOK

超过4000个机场的气象观测和天气预报(METAR&TAF报告)。

可查询的气象台以黄色和红色小点在地图上表示。

将鼠标移到小点上方,可查看气象台名称。

然后点击查看天气观测和预报。

如需切换地图:点击带黑十字的绿色按钮放大地图;点击带横线的绿色按钮缩小地图;或者点击绿色箭头查看邻近地区的地图。


METAR-TAF: